sensor_id;sensor_type;location;lat;lon;timestamp;pressure;altitude;pressure_sealevel;temperature;humidity
5522;BME280;2783;48.730;8.006;2022-10-16T00:01:59;99866.91;;;17.91;100.00
5522;BME280;2783;48.730;8.006;2022-10-16T00:04:26;99876.31;;;17.98;100.00
5522;BME280;2783;48.730;8.006;2022-10-16T00:06:51;99887.09;;;17.98;100.00
5522;BME280;2783;48.730;8.006;2022-10-16T00:09:16;99880.72;;;17.99;100.00
5522;BME280;2783;48.730;8.006;2022-10-16T00:11:42;99879.78;;;18.00;100.00
5522;BME280;2783;48.730;8.006;2022-10-16T00:14:10;99880.72;;;17.99;100.00
5522;BME280;2783;48.730;8.006;2022-10-16T00:16:37;99881.59;;;18.00;100.00
5522;BME280;2783;48.730;8.006;2022-10-16T00:19:03;99882.47;;;18.00;100.00
5522;BME280;2783;48.730;8.006;2022-10-16T00:21:29;99876.13;;;18.01;100.00
5522;BME280;2783;48.730;8.006;2022-10-16T00:24:01;99879.69;;;18.02;100.00
5522;BME280;2783;48.730;8.006;2022-10-16T00:26:29;99876.13;;;18.01;100.00
5522;BME280;2783;48.730;8.006;2022-10-16T00:28:58;99859.97;;;18.01;100.00
5522;BME280;2783;48.730;8.006;2022-10-16T00:31:24;99865.34;;;18.01;100.00
5522;BME280;2783;48.730;8.006;2022-10-16T00:33:50;99866.22;;;18.02;100.00
5522;BME280;2783;48.730;8.006;2022-10-16T00:36:17;99883.22;;;18.02;100.00
5522;BME280;2783;48.730;8.006;2022-10-16T00:38:43;99886.66;;;18.04;100.00
5522;BME280;2783;48.730;8.006;2022-10-16T00:41:12;99888.59;;;18.02;100.00
5522;BME280;2783;48.730;8.006;2022-10-16T00:43:58;99895.72;;;18.03;100.00
5522;BME280;2783;48.730;8.006;2022-10-16T00:51:30;99892.06;;;18.04;100.00
5522;BME280;2783;48.730;8.006;2022-10-16T00:53:56;99890.25;;;18.05;100.00
5522;BME280;2783;48.730;8.006;2022-10-16T00:56:22;99893.81;;;18.05;100.00
5522;BME280;2783;48.730;8.006;2022-10-16T00:58:47;99886.66;;;18.04;100.00
5522;BME280;2783;48.730;8.006;2022-10-16T01:01:13;99895.53;;;18.06;100.00
5522;BME280;2783;48.730;8.006;2022-10-16T01:03:39;99893.59;;;18.08;100.00
5522;BME280;2783;48.730;8.006;2022-10-16T01:06:16;99893.59;;;18.08;100.00
5522;BME280;2783;48.730;8.006;2022-10-16T01:09:26;99898.78;;;18.11;100.00
5522;BME280;2783;48.730;8.006;2022-10-16T01:12:10;99889.72;;;18.12;100.00
5522;BME280;2783;48.730;8.006;2022-10-16T01:18:01;99895.97;;;18.13;100.00
5522;BME280;2783;48.730;8.006;2022-10-16T01:20:33;99900.50;;;18.12;100.00
5522;BME280;2783;48.730;8.006;2022-10-16T01:28:57;99901.38;;;18.13;100.00
5522;BME280;2783;48.730;8.006;2022-10-16T01:31:30;99907.78;;;18.10;100.00
5522;BME280;2783;48.730;8.006;2022-10-16T01:34:03;99902.41;;;18.10;100.00
5522;BME280;2783;48.730;8.006;2022-10-16T01:36:38;99891.00;;;18.07;100.00
5522;BME280;2783;48.730;8.006;2022-10-16T01:39:08;99896.09;;;18.11;100.00
5522;BME280;2783;48.730;8.006;2022-10-16T01:41:46;99886.09;;;18.13;100.00
5522;BME280;2783;48.730;8.006;2022-10-16T01:44:19;99883.28;;;18.15;100.00
5522;BME280;2783;48.730;8.006;2022-10-16T01:46:48;99885.31;;;18.11;100.00
5522;BME280;2783;48.730;8.006;2022-10-16T01:49:15;99876.13;;;18.01;100.00
5522;BME280;2783;48.730;8.006;2022-10-16T01:51:45;99873.97;;;18.06;100.00
5522;BME280;2783;48.730;8.006;2022-10-16T01:54:13;99876.31;;;17.98;100.00
5522;BME280;2783;48.730;8.006;2022-10-16T01:56:41;99893.81;;;18.05;100.00
5522;BME280;2783;48.730;8.006;2022-10-16T01:59:11;99900.22;;;18.03;100.00
5522;BME280;2783;48.730;8.006;2022-10-16T02:01:40;99914.66;;;18.02;100.00
5522;BME280;2783;48.730;8.006;2022-10-16T02:06:42;99909.19;;;18.03;100.00
5522;BME280;2783;48.730;8.006;2022-10-16T02:09:08;99901.09;;;18.03;100.00
5522;BME280;2783;48.730;8.006;2022-10-16T02:11:34;99909.84;;;18.07;100.00
5522;BME280;2783;48.730;8.006;2022-10-16T02:14:05;99904.56;;;18.05;100.00
5522;BME280;2783;48.730;8.006;2022-10-16T02:16:36;99904.09;;;17.99;100.00
5522;BME280;2783;48.730;8.006;2022-10-16T02:19:01;99898.78;;;17.97;100.00
5522;BME280;2783;48.730;8.006;2022-10-16T02:21:43;99901.69;;;17.94;100.00
5522;BME280;2783;48.730;8.006;2022-10-16T02:27:29;99902.09;;;17.88;100.00
5522;BME280;2783;48.730;8.006;2022-10-16T02:30:05;99914.78;;;17.86;100.00
5522;BME280;2783;48.730;8.006;2022-10-16T02:32:34;99900.75;;;17.81;100.00
5522;BME280;2783;48.730;8.006;2022-10-16T02:35:01;99897.47;;;17.76;100.00
5522;BME280;2783;48.730;8.006;2022-10-16T02:37:28;99891.25;;;17.76;100.00
5522;BME280;2783;48.730;8.006;2022-10-16T02:39:55;99900.94;;;17.78;100.00
5522;BME280;2783;48.730;8.006;2022-10-16T02:42:20;99908.03;;;17.79;100.00
5522;BME280;2783;48.730;8.006;2022-10-16T02:44:52;99864.44;;;17.60;100.00
5522;BME280;2783;48.730;8.006;2022-10-16T02:47:17;99902.03;;;17.76;100.00
5522;BME280;2783;48.730;8.006;2022-10-16T02:49:43;99894.41;;;17.68;100.00
5522;BME280;2783;48.730;8.006;2022-10-16T02:52:08;99902.97;;;17.75;100.00
5522;BME280;2783;48.730;8.006;2022-10-16T02:54:34;99904.72;;;17.76;100.00
5522;BME280;2783;48.730;8.006;2022-10-16T02:56:59;99893.06;;;17.75;100.00
5522;BME280;2783;48.730;8.006;2022-10-16T02:59:24;99894.69;;;17.78;100.00
5522;BME280;2783;48.730;8.006;2022-10-16T03:01:50;99890.94;;;17.66;100.00
5522;BME280;2783;48.730;8.006;2022-10-16T03:04:15;99908.25;;;17.76;100.00
5522;BME280;2783;48.730;8.006;2022-10-16T03:06:41;99900.06;;;17.78;100.00
5522;BME280;2783;48.730;8.006;2022-10-16T03:09:06;99902.88;;;17.76;100.00
5522;BME280;2783;48.730;8.006;2022-10-16T03:11:31;99898.47;;;17.75;100.00
5522;BME280;2783;48.730;8.006;2022-10-16T03:13:57;99899.41;;;17.74;100.00
5522;BME280;2783;48.730;8.006;2022-10-16T03:16:22;99906.53;;;17.75;100.00
5522;BME280;2783;48.730;8.006;2022-10-16T03:18:48;99909.41;;;17.72;100.00
5522;BME280;2783;48.730;8.006;2022-10-16T03:21:17;99901.63;;;17.68;100.00
5522;BME280;2783;48.730;8.006;2022-10-16T03:23:43;99890.28;;;17.63;100.00
5522;BME280;2783;48.730;8.006;2022-10-16T03:26:08;99903.00;;;17.61;100.00
5522;BME280;2783;48.730;8.006;2022-10-16T03:28:33;99902.22;;;17.59;100.00
5522;BME280;2783;48.730;8.006;2022-10-16T03:30:59;99903.84;;;17.61;100.00
5522;BME280;2783;48.730;8.006;2022-10-16T03:33:24;99902.22;;;17.59;100.00
5522;BME280;2783;48.730;8.006;2022-10-16T03:35:54;99903.25;;;17.56;100.00
5522;BME280;2783;48.730;8.006;2022-10-16T03:38:20;99906.13;;;17.53;100.00
5522;BME280;2783;48.730;8.006;2022-10-16T03:40:46;99900.97;;;17.50;100.00
5522;BME280;2783;48.730;8.006;2022-10-16T03:43:11;99909.13;;;17.49;100.00
5522;BME280;2783;48.730;8.006;2022-10-16T03:45:37;99904.84;;;17.45;100.00
5522;BME280;2783;48.730;8.006;2022-10-16T03:48:02;99905.03;;;17.42;100.00
5522;BME280;2783;48.730;8.006;2022-10-16T03:50:29;99901.88;;;17.35;100.00
5522;BME280;2783;48.730;8.006;2022-10-16T03:52:54;99890.16;;;17.22;100.00
5522;BME280;2783;48.730;8.006;2022-10-16T03:55:20;99910.91;;;17.34;100.00
5522;BME280;2783;48.730;8.006;2022-10-16T03:57:45;99910.91;;;17.34;100.00
5522;BME280;2783;48.730;8.006;2022-10-16T04:00:11;99911.78;;;17.35;100.00
5522;BME280;2783;48.730;8.006;2022-10-16T04:02:37;99917.81;;;17.38;100.00
5522;BME280;2783;48.730;8.006;2022-10-16T04:05:03;99918.78;;;17.37;100.00
5522;BME280;2783;48.730;8.006;2022-10-16T04:07:28;99934.91;;;17.37;100.00
5522;BME280;2783;48.730;8.006;2022-10-16T04:09:54;99923.78;;;17.29;100.00
5522;BME280;2783;48.730;8.006;2022-10-16T04:12:19;99940.41;;;17.36;100.00
5522;BME280;2783;48.730;8.006;2022-10-16T04:14:45;99938.69;;;17.35;100.00
5522;BME280;2783;48.730;8.006;2022-10-16T04:17:10;99941.38;;;17.35;100.00
5522;BME280;2783;48.730;8.006;2022-10-16T04:19:35;99925.50;;;17.30;100.00
5522;BME280;2783;48.730;8.006;2022-10-16T04:22:01;99948.16;;;17.40;100.00
5522;BME280;2783;48.730;8.006;2022-10-16T04:24:26;99949.03;;;17.41;100.00
5522;BME280;2783;48.730;8.006;2022-10-16T04:26:51;99944.28;;;17.46;100.00
5522;BME280;2783;48.730;8.006;2022-10-16T04:29:17;99947.75;;;17.48;100.00
5522;BME280;2783;48.730;8.006;2022-10-16T04:31:42;99949.38;;;17.50;100.00
5522;BME280;2783;48.730;8.006;2022-10-16T04:34:08;99940.31;;;17.51;100.00
5522;BME280;2783;48.730;8.006;2022-10-16T04:36:33;99940.31;;;17.51;100.00
5522;BME280;2783;48.730;8.006;2022-10-16T04:38:59;99942.06;;;17.52;100.00
5522;BME280;2783;48.730;8.006;2022-10-16T04:41:24;99941.50;;;17.47;100.00
5522;BME280;2783;48.730;8.006;2022-10-16T04:43:49;99951.75;;;17.55;100.00
5522;BME280;2783;48.730;8.006;2022-10-16T04:46:15;99960.72;;;17.55;100.00
5522;BME280;2783;48.730;8.006;2022-10-16T04:48:40;99962.53;;;17.55;100.00
5522;BME280;2783;48.730;8.006;2022-10-16T04:51:06;99968.97;;;17.52;100.00
5522;BME280;2783;48.730;8.006;2022-10-16T04:53:31;99965.50;;;17.50;100.00
5522;BME280;2783;48.730;8.006;2022-10-16T04:55:56;99965.50;;;17.50;100.00
5522;BME280;2783;48.730;8.006;2022-10-16T04:58:22;99954.16;;;17.45;100.00
5522;BME280;2783;48.730;8.006;2022-10-16T05:00:48;99953.75;;;17.37;100.00
5522;BME280;2783;48.730;8.006;2022-10-16T05:03:13;99962.03;;;17.48;100.00
5522;BME280;2783;48.730;8.006;2022-10-16T05:05:45;99959.59;;;17.44;100.00
5522;BME280;2783;48.730;8.006;2022-10-16T05:08:12;99971.66;;;17.52;100.00
5522;BME280;2783;48.730;8.006;2022-10-16T05:10:39;99970.69;;;17.53;100.00
5522;BME280;2783;48.730;8.006;2022-10-16T05:13:05;99969.31;;;17.46;100.00
5522;BME280;2783;48.730;8.006;2022-10-16T05:15:31;99974.16;;;17.55;100.00
5522;BME280;2783;48.730;8.006;2022-10-16T05:17:56;99987.59;;;17.55;100.00
5522;BME280;2783;48.730;8.006;2022-10-16T05:20:22;99981.25;;;17.56;100.00
5522;BME280;2783;48.730;8.006;2022-10-16T05:22:47;99954.94;;;17.47;100.00
5522;BME280;2783;48.730;8.006;2022-10-16T05:25:13;99961.59;;;17.56;100.00
5522;BME280;2783;48.730;8.006;2022-10-16T05:27:39;99967.06;;;17.54;100.00
5522;BME280;2783;48.730;8.006;2022-10-16T05:30:04;99971.38;;;17.57;100.00
5522;BME280;2783;48.730;8.006;2022-10-16T05:32:30;99976.66;;;17.58;100.00
5522;BME280;2783;48.730;8.006;2022-10-16T05:34:56;99982.81;;;17.60;100.00
5522;BME280;2783;48.730;8.006;2022-10-16T05:37:21;99994.59;;;17.58;100.00
5522;BME280;2783;48.730;8.006;2022-10-16T05:39:46;99977.44;;;17.60;100.00
5522;BME280;2783;48.730;8.006;2022-10-16T05:42:12;99961.28;;;17.60;100.00
5522;BME280;2783;48.730;8.006;2022-10-16T05:44:37;99977.53;;;17.59;100.00
5522;BME280;2783;48.730;8.006;2022-10-16T05:47:03;99998.94;;;17.60;100.00
5522;BME280;2783;48.730;8.006;2022-10-16T05:49:28;99981.09;;;17.59;100.00
5522;BME280;2783;48.730;8.006;2022-10-16T05:51:54;99981.94;;;17.60;100.00
5522;BME280;2783;48.730;8.006;2022-10-16T05:54:19;99995.47;;;17.58;100.00
5522;BME280;2783;48.730;8.006;2022-10-16T05:56:45;100002.78;;;17.56;100.00
5522;BME280;2783;48.730;8.006;2022-10-16T05:59:10;100001.75;;;17.59;100.00
5522;BME280;2783;48.730;8.006;2022-10-16T06:01:35;100004.31;;;17.60;100.00
5522;BME280;2783;48.730;8.006;2022-10-16T06:04:01;99976.06;;;17.53;100.00
5522;BME280;2783;48.730;8.006;2022-10-16T06:06:28;99993.56;;;17.60;100.00
5522;BME280;2783;48.730;8.006;2022-10-16T06:08:55;99990.97;;;17.59;100.00
5522;BME280;2783;48.730;8.006;2022-10-16T06:11:25;100002.78;;;17.56;100.00
5522;BME280;2783;48.730;8.006;2022-10-16T06:13:53;100000.19;;;17.55;100.00
5522;BME280;2783;48.730;8.006;2022-10-16T06:16:19;100008.16;;;17.56;100.00
5522;BME280;2783;48.730;8.006;2022-10-16T06:18:45;100008.06;;;17.58;100.00
5522;BME280;2783;48.730;8.006;2022-10-16T06:21:14;100007.03;;;17.60;100.00
5522;BME280;2783;48.730;8.006;2022-10-16T06:23:41;99999.91;;;17.59;100.00
5522;BME280;2783;48.730;8.006;2022-10-16T06:26:12;100000.50;;;17.64;100.00
5522;BME280;2783;48.730;8.006;2022-10-16T06:28:38;100007.59;;;17.65;100.00
5522;BME280;2783;48.730;8.006;2022-10-16T06:31:05;100008.47;;;17.66;100.00
5522;BME280;2783;48.730;8.006;2022-10-16T06:33:32;100006.72;;;17.65;100.00
5522;BME280;2783;48.730;8.006;2022-10-16T06:36:08;100015.56;;;17.67;100.00
5522;BME280;2783;48.730;8.006;2022-10-16T06:38:34;100017.50;;;17.65;100.00
5522;BME280;2783;48.730;8.006;2022-10-16T06:41:00;100020.09;;;17.66;100.00
5522;BME280;2783;48.730;8.006;2022-10-16T06:43:26;100027.22;;;17.67;100.00
5522;BME280;2783;48.730;8.006;2022-10-16T06:45:55;100026.16;;;17.70;100.00
5522;BME280;2783;48.730;8.006;2022-10-16T06:48:22;100030.66;;;17.69;100.00
5522;BME280;2783;48.730;8.006;2022-10-16T06:50:59;100022.41;;;17.72;100.00
5522;BME280;2783;48.730;8.006;2022-10-16T06:53:26;100031.81;;;17.79;100.00
5522;BME280;2783;48.730;8.006;2022-10-16T06:55:52;100017.13;;;17.71;100.00
5522;BME280;2783;48.730;8.006;2022-10-16T06:58:17;100038.56;;;17.86;100.00
5522;BME280;2783;48.730;8.006;2022-10-16T07:00:43;100035.41;;;17.94;100.00
5522;BME280;2783;48.730;8.006;2022-10-16T07:03:09;100031.56;;;17.98;100.00
5522;BME280;2783;48.730;8.006;2022-10-16T07:05:38;100043.19;;;17.98;100.00
5522;BME280;2783;48.730;8.006;2022-10-16T07:08:04;100050.97;;;18.03;100.00
5522;BME280;2783;48.730;8.006;2022-10-16T07:10:31;100057.03;;;18.06;100.00
5522;BME280;2783;48.730;8.006;2022-10-16T07:12:56;100051.44;;;18.09;100.00
5522;BME280;2783;48.730;8.006;2022-10-16T07:15:22;100054.63;;;18.16;100.00
5522;BME280;2783;48.730;8.006;2022-10-16T07:17:47;100056.28;;;18.18;100.00
5522;BME280;2783;48.730;8.006;2022-10-16T07:20:13;100065.41;;;18.16;100.00
5522;BME280;2783;48.730;8.006;2022-10-16T07:22:39;100068.97;;;18.16;100.00
5522;BME280;2783;48.730;8.006;2022-10-16T07:25:04;100070.69;;;18.17;100.00
5522;BME280;2783;48.730;8.006;2022-10-16T07:27:30;100076.94;;;18.18;100.00
5522;BME280;2783;48.730;8.006;2022-10-16T07:29:55;100076.06;;;18.17;100.00
5522;BME280;2783;48.730;8.006;2022-10-16T07:32:21;100079.72;;;18.16;100.00
5522;BME280;2783;48.730;8.006;2022-10-16T07:34:46;100093.69;;;18.23;100.00
5522;BME280;2783;48.730;8.006;2022-10-16T07:37:12;100094.16;;;18.29;100.00
5522;BME280;2783;48.730;8.006;2022-10-16T07:39:37;100097.44;;;18.34;100.00
5522;BME280;2783;48.730;8.006;2022-10-16T07:42:02;100102.56;;;18.39;100.00
5522;BME280;2783;48.730;8.006;2022-10-16T07:44:28;100105.13;;;18.41;100.00
5522;BME280;2783;48.730;8.006;2022-10-16T07:46:53;100097.44;;;18.49;100.00
5522;BME280;2783;48.730;8.006;2022-10-16T07:49:18;100102.47;;;18.55;100.00
5522;BME280;2783;48.730;8.006;2022-10-16T07:51:44;100096.88;;;18.58;100.00
5522;BME280;2783;48.730;8.006;2022-10-16T07:54:10;100101.00;;;18.63;100.00
5522;BME280;2783;48.730;8.006;2022-10-16T07:56:35;100099.94;;;18.66;100.00
5522;BME280;2783;48.730;8.006;2022-10-16T07:59:00;100100.41;;;18.72;100.00
5522;BME280;2783;48.730;8.006;2022-10-16T08:01:26;100107.97;;;18.80;100.00
5522;BME280;2783;48.730;8.006;2022-10-16T08:03:52;100100.47;;;18.85;100.00
5522;BME280;2783;48.730;8.006;2022-10-16T08:06:19;100102.22;;;18.86;100.00
5522;BME280;2783;48.730;8.006;2022-10-16T08:08:44;100091.69;;;18.95;100.00
5522;BME280;2783;48.730;8.006;2022-10-16T08:11:10;100101.69;;;19.07;100.00
5522;BME280;2783;48.730;8.006;2022-10-16T08:13:36;100108.84;;;19.21;100.00
5522;BME280;2783;48.730;8.006;2022-10-16T08:16:02;100100.84;;;19.73;100.00
5522;BME280;2783;48.730;8.006;2022-10-16T08:18:34;100103.91;;;20.43;100.00
5522;BME280;2783;48.730;8.006;2022-10-16T08:21:00;100101.06;;;22.00;97.81
5522;BME280;2783;48.730;8.006;2022-10-16T08:23:26;100101.19;;;23.31;84.97
5522;BME280;2783;48.730;8.006;2022-10-16T08:25:56;100110.78;;;23.24;78.87
5522;BME280;2783;48.730;8.006;2022-10-16T08:28:22;100119.75;;;22.82;79.46
5522;BME280;2783;48.730;8.006;2022-10-16T08:30:48;100117.38;;;22.34;80.72
5522;BME280;2783;48.730;8.006;2022-10-16T08:33:14;100109.56;;;21.72;83.04
5522;BME280;2783;48.730;8.006;2022-10-16T08:35:39;100123.06;;;21.61;86.05
5522;BME280;2783;48.730;8.006;2022-10-16T08:38:05;100120.41;;;22.07;85.73
5522;BME280;2783;48.730;8.006;2022-10-16T08:40:33;100121.19;;;22.31;83.41
5522;BME280;2783;48.730;8.006;2022-10-16T08:48:20;100137.09;;;21.90;83.64
5522;BME280;2783;48.730;8.006;2022-10-16T08:50:50;100138.03;;;21.54;85.86
5522;BME280;2783;48.730;8.006;2022-10-16T08:53:22;100145.91;;;21.34;87.39
5522;BME280;2783;48.730;8.006;2022-10-16T08:55:51;100150.97;;;21.15;88.65
5522;BME280;2783;48.730;8.006;2022-10-16T08:58:19;100154.75;;;21.12;89.58
5522;BME280;2783;48.730;8.006;2022-10-16T09:00:48;100165.66;;;21.23;90.99
5522;BME280;2783;48.730;8.006;2022-10-16T09:06:21;100159.63;;;21.20;90.36
5522;BME280;2783;48.730;8.006;2022-10-16T09:12:05;100171.50;;;21.30;89.72
5522;BME280;2783;48.730;8.006;2022-10-16T09:17:32;100179.03;;;21.37;90.06
5522;BME280;2783;48.730;8.006;2022-10-16T09:22:39;100180.06;;;21.47;90.20
5522;BME280;2783;48.730;8.006;2022-10-16T09:25:16;100179.84;;;21.50;90.76
5522;BME280;2783;48.730;8.006;2022-10-16T09:27:45;100188.31;;;21.46;90.40
5522;BME280;2783;48.730;8.006;2022-10-16T09:30:13;100189.97;;;21.36;90.10
5522;BME280;2783;48.730;8.006;2022-10-16T09:32:40;100190.72;;;21.38;90.04
5522;BME280;2783;48.730;8.006;2022-10-16T09:35:13;100198.50;;;21.42;90.50
5522;BME280;2783;48.730;8.006;2022-10-16T09:37:39;100195.91;;;21.41;90.70
5522;BME280;2783;48.730;8.006;2022-10-16T09:40:06;100192.63;;;21.48;91.53
5522;BME280;2783;48.730;8.006;2022-10-16T09:42:34;100187.41;;;21.58;92.30
5522;BME280;2783;48.730;8.006;2022-10-16T09:45:02;100195.63;;;21.56;91.13
5522;BME280;2783;48.730;8.006;2022-10-16T09:47:29;100207.06;;;21.60;89.96
5522;BME280;2783;48.730;8.006;2022-10-16T09:50:00;100208.06;;;22.06;89.67
5522;BME280;2783;48.730;8.006;2022-10-16T09:52:32;100204.50;;;22.40;88.64
5522;BME280;2783;48.730;8.006;2022-10-16T09:55:24;100209.03;;;22.63;85.80
5522;BME280;2783;48.730;8.006;2022-10-16T09:57:52;100209.25;;;22.93;82.14
5522;BME280;2783;48.730;8.006;2022-10-16T10:00:19;100208.53;;;23.02;82.04
5522;BME280;2783;48.730;8.006;2022-10-16T10:02:45;100212.22;;;23.23;81.38
5522;BME280;2783;48.730;8.006;2022-10-16T10:05:21;100207.47;;;23.70;80.02
5522;BME280;2783;48.730;8.006;2022-10-16T10:07:55;100215.31;;;23.95;77.94
5522;BME280;2783;48.730;8.006;2022-10-16T10:10:27;100234.25;;;24.17;76.15
5522;BME280;2783;48.730;8.006;2022-10-16T10:12:54;100227.59;;;24.62;74.77
5522;BME280;2783;48.730;8.006;2022-10-16T10:15:21;100218.69;;;24.60;72.09
5522;BME280;2783;48.730;8.006;2022-10-16T10:17:51;100236.03;;;24.59;72.00
5522;BME280;2783;48.730;8.006;2022-10-16T10:20:27;100236.88;;;24.39;71.92
5522;BME280;2783;48.730;8.006;2022-10-16T10:22:54;100234.50;;;24.25;71.82
5522;BME280;2783;48.730;8.006;2022-10-16T10:25:45;100236.63;;;24.10;73.44
5522;BME280;2783;48.730;8.006;2022-10-16T10:30:48;100236.09;;;24.48;75.03
5522;BME280;2783;48.730;8.006;2022-10-16T10:33:47;100243.94;;;24.83;72.97
5522;BME280;2783;48.730;8.006;2022-10-16T10:36:32;100246.06;;;24.79;71.62
5522;BME280;2783;48.730;8.006;2022-10-16T10:38:59;100234.59;;;24.64;71.22
5522;BME280;2783;48.730;8.006;2022-10-16T10:50:18;100216.75;;;24.30;72.31
5522;BME280;2783;48.730;8.006;2022-10-16T10:55:51;100225.47;;;24.45;73.11
5522;BME280;2783;48.730;8.006;2022-10-16T11:01:26;100222.16;;;24.62;69.71
5522;BME280;2783;48.730;8.006;2022-10-16T11:07:00;100229.50;;;24.92;72.06
5522;BME280;2783;48.730;8.006;2022-10-16T11:09:39;100223.28;;;24.80;70.95
5522;BME280;2783;48.730;8.006;2022-10-16T11:12:18;100213.84;;;24.63;68.86
5522;BME280;2783;48.730;8.006;2022-10-16T11:14:52;100215.66;;;24.33;69.59
5522;BME280;2783;48.730;8.006;2022-10-16T11:17:35;100214.31;;;24.27;70.79
5522;BME280;2783;48.730;8.006;2022-10-16T11:20:13;100213.72;;;24.24;73.00
5522;BME280;2783;48.730;8.006;2022-10-16T11:22:46;100208.81;;;24.18;74.03
5522;BME280;2783;48.730;8.006;2022-10-16T11:25:26;100212.03;;;24.12;74.78
5522;BME280;2783;48.730;8.006;2022-10-16T11:27:58;100212.28;;;24.09;74.60
5522;BME280;2783;48.730;8.006;2022-10-16T11:30:33;100207.59;;;24.11;76.61
5522;BME280;2783;48.730;8.006;2022-10-16T11:35:47;100212.91;;;24.12;76.20
5522;BME280;2783;48.730;8.006;2022-10-16T11:38:34;100206.38;;;24.04;76.32
5522;BME280;2783;48.730;8.006;2022-10-16T11:41:28;100205.53;;;23.92;77.31
5522;BME280;2783;48.730;8.006;2022-10-16T11:44:09;100201.31;;;23.68;77.40
5522;BME280;2783;48.730;8.006;2022-10-16T11:46:45;100202.00;;;23.49;75.63
5522;BME280;2783;48.730;8.006;2022-10-16T11:49:14;100208.53;;;23.47;76.54
5522;BME280;2783;48.730;8.006;2022-10-16T11:52:06;100201.88;;;23.39;78.31
5522;BME280;2783;48.730;8.006;2022-10-16T11:54:53;100199.00;;;23.41;79.16
5522;BME280;2783;48.730;8.006;2022-10-16T11:57:45;100195.47;;;23.40;80.17
5522;BME280;2783;48.730;8.006;2022-10-16T12:00:22;100195.72;;;23.37;80.38
5522;BME280;2783;48.730;8.006;2022-10-16T12:03:27;100198.19;;;23.40;81.58
5522;BME280;2783;48.730;8.006;2022-10-16T12:06:10;100195.69;;;23.49;83.85
5522;BME280;2783;48.730;8.006;2022-10-16T12:08:37;100193.31;;;23.55;85.07
5522;BME280;2783;48.730;8.006;2022-10-16T12:17:27;100183.34;;;23.56;81.13
5522;BME280;2783;48.730;8.006;2022-10-16T12:19:44;100189.16;;;23.40;80.15
5522;BME280;2783;48.730;8.006;2022-10-16T12:22:17;100199.53;;;23.35;82.17
5522;BME280;2783;48.730;8.006;2022-10-16T12:24:43;100198.91;;;23.31;84.58
5522;BME280;2783;48.730;8.006;2022-10-16T12:27:38;100196.47;;;23.28;87.02
5522;BME280;2783;48.730;8.006;2022-10-16T12:30:05;100191.50;;;23.22;87.42
5522;BME280;2783;48.730;8.006;2022-10-16T12:32:32;100189.16;;;23.18;88.23
5522;BME280;2783;48.730;8.006;2022-10-16T12:35:00;100191.16;;;23.16;89.64
5522;BME280;2783;48.730;8.006;2022-10-16T12:39:56;100184.88;;;23.04;91.22
5522;BME280;2783;48.730;8.006;2022-10-16T12:44:51;100184.50;;;22.98;91.74
5522;BME280;2783;48.730;8.006;2022-10-16T12:47:23;100183.88;;;22.94;92.78
5522;BME280;2783;48.730;8.006;2022-10-16T12:49:54;100183.88;;;22.94;93.73
5522;BME280;2783;48.730;8.006;2022-10-16T12:54:58;100176.47;;;23.07;94.61
5522;BME280;2783;48.730;8.006;2022-10-16T13:05:50;100181.78;;;23.31;94.59
5522;BME280;2783;48.730;8.006;2022-10-16T13:11:03;100176.72;;;23.37;91.26
5522;BME280;2783;48.730;8.006;2022-10-16T13:24:47;100173.69;;;23.52;91.67
5522;BME280;2783;48.730;8.006;2022-10-16T13:27:41;100164.81;;;23.50;90.92
5522;BME280;2783;48.730;8.006;2022-10-16T13:30:21;100165.94;;;23.47;88.45
5522;BME280;2783;48.730;8.006;2022-10-16T13:33:02;100174.56;;;23.52;87.61
5522;BME280;2783;48.730;8.006;2022-10-16T13:35:32;100169.22;;;23.62;87.58
5522;BME280;2783;48.730;8.006;2022-10-16T13:38:16;100173.38;;;23.77;88.68
5522;BME280;2783;48.730;8.006;2022-10-16T13:40:54;100175.19;;;24.19;89.40
5522;BME280;2783;48.730;8.006;2022-10-16T13:43:34;100162.38;;;24.72;86.48
5522;BME280;2783;48.730;8.006;2022-10-16T13:46:02;100162.66;;;25.38;82.09
5522;BME280;2783;48.730;8.006;2022-10-16T13:48:30;100166.59;;;25.74;78.09
5522;BME280;2783;48.730;8.006;2022-10-16T13:51:01;100164.06;;;26.11;73.12
5522;BME280;2783;48.730;8.006;2022-10-16T13:53:27;100155.53;;;26.33;72.77
5522;BME280;2783;48.730;8.006;2022-10-16T13:55:54;100157.94;;;26.55;72.11
5522;BME280;2783;48.730;8.006;2022-10-16T13:58:20;100155.78;;;26.68;70.94
5522;BME280;2783;48.730;8.006;2022-10-16T14:00:56;100165.44;;;26.43;71.79
5522;BME280;2783;48.730;8.006;2022-10-16T14:03:23;100169.78;;;26.08;71.85
5522;BME280;2783;48.730;8.006;2022-10-16T14:05:52;100170.19;;;25.74;73.41
5522;BME280;2783;48.730;8.006;2022-10-16T14:08:19;100168.28;;;25.56;76.48
5522;BME280;2783;48.730;8.006;2022-10-16T14:10:50;100168.44;;;25.54;78.45
5522;BME280;2783;48.730;8.006;2022-10-16T14:13:23;100163.72;;;25.56;78.12
5522;BME280;2783;48.730;8.006;2022-10-16T14:15:51;100165.69;;;25.54;78.09
5522;BME280;2783;48.730;8.006;2022-10-16T14:18:22;100170.97;;;25.37;77.38
5522;BME280;2783;48.730;8.006;2022-10-16T14:20:49;100166.31;;;25.28;76.34
5522;BME280;2783;48.730;8.006;2022-10-16T14:23:28;100168.00;;;25.19;77.56
5522;BME280;2783;48.730;8.006;2022-10-16T14:26:05;100164.50;;;24.98;78.22
5522;BME280;2783;48.730;8.006;2022-10-16T14:28:31;100164.34;;;24.90;80.00
5522;BME280;2783;48.730;8.006;2022-10-16T14:30:58;100166.41;;;24.77;80.46
5522;BME280;2783;48.730;8.006;2022-10-16T14:33:31;100168.19;;;24.67;81.85
5522;BME280;2783;48.730;8.006;2022-10-16T14:36:04;100172.25;;;24.52;81.02
5522;BME280;2783;48.730;8.006;2022-10-16T14:38:31;100175.34;;;24.38;82.28
5522;BME280;2783;48.730;8.006;2022-10-16T14:40:58;100173.66;;;24.26;82.97
5522;BME280;2783;48.730;8.006;2022-10-16T14:43:36;100171.72;;;24.17;84.08
5522;BME280;2783;48.730;8.006;2022-10-16T14:46:04;100166.81;;;24.11;85.07
5522;BME280;2783;48.730;8.006;2022-10-16T14:48:33;100164.19;;;24.00;85.98
5522;BME280;2783;48.730;8.006;2022-10-16T14:50:59;100169.59;;;23.89;87.33
5522;BME280;2783;48.730;8.006;2022-10-16T14:53:24;100166.94;;;23.78;88.99
5522;BME280;2783;48.730;8.006;2022-10-16T14:55:50;100164.28;;;23.67;89.75
5522;BME280;2783;48.730;8.006;2022-10-16T14:58:21;100171.22;;;23.60;91.14